createdAt,value
2018-06-03T00:01:15.603Z,7.50
2018-06-03T00:03:43.866Z,7.60
2018-06-03T00:06:12.231Z,6.92
2018-06-03T00:08:40.604Z,6.72
2018-06-03T00:11:08.833Z,7.80
2018-06-03T00:13:37.214Z,6.95
2018-06-03T00:16:05.552Z,7.10
2018-06-03T00:18:33.848Z,7.08
2018-06-03T00:21:13.566Z,7.20
2018-06-03T00:23:41.858Z,7.45
2018-06-03T00:26:10.195Z,5.95
2018-06-03T00:28:38.440Z,6.78
2018-06-03T00:31:07.276Z,6.75
2018-06-03T00:33:36.178Z,5.83
2018-06-03T00:36:15.906Z,6.47
2018-06-03T00:38:44.463Z,7.33
2018-06-03T00:41:12.820Z,5.92
2018-06-03T00:43:41.081Z,6.10
2018-06-03T00:46:09.380Z,6.70
2018-06-03T00:48:37.647Z,6.42
2018-06-03T00:51:05.969Z,6.80
2018-06-03T00:53:36.195Z,6.62
2018-06-03T00:56:04.483Z,7.35
2018-06-03T00:58:32.763Z,6.70
2018-06-03T01:01:01.347Z,6.20
2018-06-03T01:03:29.670Z,7.65
2018-06-03T01:05:57.910Z,6.28
2018-06-03T01:08:26.205Z,7.37
2018-06-03T01:10:54.468Z,6.28
2018-06-03T01:13:22.784Z,6.87
2018-06-03T01:15:51.169Z,7.70
2018-06-03T01:18:20.015Z,6.60
2018-06-03T01:20:48.304Z,7.80
2018-06-03T01:23:16.564Z,7.10
2018-06-03T01:25:44.916Z,6.92
2018-06-03T01:28:13.283Z,6.70
2018-06-03T01:30:41.591Z,6.80
2018-06-03T01:33:09.855Z,6.60
2018-06-03T01:35:40.347Z,7.78
2018-06-03T01:38:08.643Z,6.85
2018-06-03T01:40:36.954Z,7.28
2018-06-03T01:43:05.309Z,7.55
2018-06-03T01:45:33.631Z,8.08
2018-06-03T01:48:01.912Z,6.75
2018-06-03T01:50:30.148Z,7.15
2018-06-03T01:52:58.437Z,6.50
2018-06-03T01:55:26.681Z,7.00
2018-06-03T01:57:54.964Z,7.67
2018-06-03T02:00:23.238Z,6.90
2018-06-03T02:02:51.614Z,7.70
2018-06-03T02:05:19.912Z,8.05
2018-06-03T02:07:48.179Z,7.08
2018-06-03T02:10:16.471Z,7.12
2018-06-03T02:12:44.745Z,8.15
2018-06-03T02:15:13.042Z,7.92
2018-06-03T02:17:41.278Z,6.90
2018-06-03T02:20:09.577Z,7.62
2018-06-03T02:22:37.867Z,7.58
2018-06-03T02:25:06.251Z,5.97
2018-06-03T02:27:34.515Z,7.35
2018-06-03T02:30:02.869Z,7.20
2018-06-03T02:32:31.200Z,8.20
2018-06-03T02:34:59.503Z,8.23
2018-06-03T02:37:27.806Z,7.03
2018-06-03T02:39:56.163Z,7.35
2018-06-03T02:42:24.433Z,8.03
2018-06-03T02:44:52.851Z,7.80
2018-06-03T02:47:21.096Z,8.38
2018-06-03T02:49:49.465Z,7.08
2018-06-03T02:52:17.693Z,7.85
2018-06-03T02:54:45.978Z,7.97
2018-06-03T02:57:14.216Z,8.38
2018-06-03T02:59:42.473Z,8.53
2018-06-03T03:02:10.799Z,7.80
2018-06-03T03:04:39.182Z,8.25
2018-06-03T03:07:07.511Z,7.10
2018-06-03T03:09:35.978Z,7.72
2018-06-03T03:12:04.239Z,8.45
2018-06-03T03:14:32.526Z,8.00
2018-06-03T03:17:00.891Z,7.95
2018-06-03T03:19:29.400Z,8.00
2018-06-03T03:21:57.696Z,7.72
2018-06-03T03:24:26.081Z,8.80
2018-06-03T03:26:54.432Z,7.75
2018-06-03T03:29:22.693Z,7.97
2018-06-03T03:31:51.041Z,7.60
2018-06-03T03:34:19.383Z,8.18
2018-06-03T03:36:47.618Z,8.13
2018-06-03T03:39:15.910Z,7.15
2018-06-03T03:41:44.164Z,8.10
2018-06-03T03:44:12.449Z,7.47
2018-06-03T03:46:40.711Z,8.00
2018-06-03T03:49:09.021Z,7.62
2018-06-03T03:51:37.275Z,8.15
2018-06-03T03:54:05.625Z,8.63
2018-06-03T03:56:33.914Z,8.40
2018-06-03T03:59:02.181Z,7.85
2018-06-03T04:01:30.464Z,8.20
2018-06-03T04:03:58.778Z,9.15
2018-06-03T04:06:27.135Z,8.80
2018-06-03T04:08:55.373Z,8.73
2018-06-03T04:11:23.797Z,7.87
2018-06-03T04:13:52.095Z,9.18
2018-06-03T04:16:20.366Z,7.30
2018-06-03T04:18:48.647Z,8.70
2018-06-03T04:21:16.885Z,9.00
2018-06-03T04:23:45.193Z,8.35
2018-06-03T04:26:13.482Z,8.60
2018-06-03T04:28:41.797Z,8.00
2018-06-03T04:31:10.033Z,7.87
2018-06-03T04:33:38.315Z,9.23
2018-06-03T04:36:06.570Z,8.73
2018-06-03T04:38:34.857Z,9.03
2018-06-03T04:41:03.138Z,8.30
2018-06-03T04:43:31.371Z,8.80
2018-06-03T04:45:59.647Z,8.60
2018-06-03T04:48:27.953Z,8.38
2018-06-03T04:50:56.203Z,9.28
2018-06-03T04:53:24.501Z,8.55
2018-06-03T04:55:52.865Z,7.87
2018-06-03T04:58:21.133Z,8.73
2018-06-03T05:00:49.459Z,9.23
2018-06-03T05:03:17.742Z,8.60
2018-06-03T05:05:46.133Z,9.18
2018-06-03T05:08:14.593Z,7.78
2018-06-03T05:10:42.861Z,8.55
2018-06-03T05:13:11.197Z,9.15
2018-06-03T05:15:39.496Z,9.38
2018-06-03T05:18:07.746Z,9.45
2018-06-03T05:20:36.020Z,10.18
2018-06-03T05:23:04.289Z,8.08
2018-06-03T05:25:32.537Z,9.43
2018-06-03T05:28:00.816Z,8.03
2018-06-03T05:30:29.076Z,8.98
2018-06-03T05:32:57.356Z,8.88
2018-06-03T05:35:25.592Z,7.95
2018-06-03T05:37:53.879Z,8.35
2018-06-03T05:40:22.118Z,8.00
2018-06-03T05:42:50.414Z,8.48
2018-06-03T05:45:18.744Z,8.63
2018-06-03T05:47:47.391Z,8.70
2018-06-03T05:50:15.681Z,9.13
2018-06-03T05:52:43.931Z,10.10
2018-06-03T05:55:12.171Z,9.55
2018-06-03T05:57:40.452Z,7.67
2018-06-03T06:00:08.932Z,8.28
2018-06-03T06:02:37.283Z,7.75
2018-06-03T06:05:05.550Z,8.48
2018-06-03T06:07:33.816Z,7.87
2018-06-03T06:10:02.101Z,7.60
2018-06-03T06:12:30.354Z,8.05
2018-06-03T06:14:58.756Z,8.08
2018-06-03T06:17:27.118Z,8.40
2018-06-03T06:19:55.629Z,7.60
2018-06-03T06:22:23.947Z,7.08
2018-06-03T06:24:52.226Z,7.53
2018-06-03T06:27:20.564Z,8.83
2018-06-03T06:29:49.082Z,7.95
2018-06-03T06:32:17.337Z,7.90
2018-06-03T06:34:45.655Z,9.20
2018-06-03T06:37:32.690Z,8.30
2018-06-03T06:40:01.540Z,7.17
2018-06-03T06:42:29.813Z,7.72
2018-06-03T06:44:58.053Z,8.43
2018-06-03T06:47:26.410Z,7.50
2018-06-03T06:49:54.824Z,9.33
2018-06-03T06:52:23.097Z,7.45
2018-06-03T06:54:51.437Z,7.00
2018-06-03T06:57:19.903Z,8.30
2018-06-03T06:59:48.171Z,6.85
2018-06-03T07:02:17.250Z,8.13
2018-06-03T07:04:45.602Z,6.58
2018-06-03T07:10:12.199Z,6.47
2018-06-03T07:12:53.813Z,7.42
2018-06-03T07:15:22.086Z,6.22
2018-06-03T07:21:43.975Z,6.53
2018-06-03T07:24:12.291Z,6.15
2018-06-03T07:32:37.373Z,6.50
2018-06-03T07:35:05.711Z,5.47
2018-06-03T07:37:34.018Z,6.00
2018-06-03T07:40:02.492Z,5.35
2018-06-03T07:47:40.893Z,5.70
2018-06-03T07:50:09.247Z,6.60
2018-06-03T07:52:37.601Z,5.75
2018-06-03T07:55:05.937Z,5.70
2018-06-03T07:57:34.278Z,6.25
2018-06-03T08:00:02.561Z,5.95
2018-06-03T08:02:30.888Z,5.40
2018-06-03T08:04:59.275Z,5.72
2018-06-03T08:07:27.560Z,5.55
2018-06-03T08:09:55.888Z,4.85
2018-06-03T08:12:24.118Z,5.78
2018-06-03T08:14:52.411Z,4.55
2018-06-03T08:17:20.689Z,4.87
2018-06-03T08:19:49.040Z,5.10
2018-06-03T08:22:17.396Z,5.10
2018-06-03T08:24:45.641Z,5.33
2018-06-03T08:27:13.928Z,5.85
2018-06-03T08:29:42.200Z,4.75
2018-06-03T08:32:10.481Z,4.85
2018-06-03T08:34:38.835Z,4.58
2018-06-03T08:37:07.244Z,4.80
2018-06-03T08:39:35.534Z,6.28
2018-06-03T08:42:03.916Z,5.70
2018-06-03T08:44:32.242Z,5.22
2018-06-03T08:47:00.538Z,4.70
2018-06-03T08:49:28.808Z,4.65
2018-06-03T08:51:57.134Z,4.58
2018-06-03T08:54:25.461Z,5.62
2018-06-03T08:56:53.755Z,4.35
2018-06-03T08:59:22.443Z,4.60
2018-06-03T09:01:50.766Z,4.55
2018-06-03T09:04:19.024Z,5.37
2018-06-03T09:06:47.389Z,4.00
2018-06-03T09:09:15.634Z,4.30
2018-06-03T09:11:43.891Z,4.83
2018-06-03T09:14:12.143Z,3.50
2018-06-03T09:16:40.463Z,3.98
2018-06-03T09:19:08.780Z,4.37
2018-06-03T09:21:37.177Z,3.90
2018-06-03T09:24:05.552Z,4.25
2018-06-03T09:26:33.777Z,4.70
2018-06-03T09:29:02.043Z,4.55
2018-06-03T10:11:24.857Z,3.92
2018-06-03T10:13:53.206Z,3.52
2018-06-03T10:16:21.499Z,4.12
2018-06-03T10:18:49.850Z,4.42
2018-06-03T10:21:18.125Z,4.33
2018-06-03T10:23:46.457Z,4.00
2018-06-03T10:26:14.748Z,3.92
2018-06-03T10:28:43.323Z,3.30
2018-06-03T10:31:11.596Z,3.02
2018-06-03T10:33:39.866Z,3.67
2018-06-03T10:36:08.120Z,3.85
2018-06-03T10:38:36.415Z,3.42
2018-06-03T10:41:04.718Z,4.35
2018-06-03T10:43:32.977Z,4.65
2018-06-03T10:46:01.742Z,4.08
2018-06-03T10:48:30.032Z,4.37
2018-06-03T10:50:58.330Z,4.40
2018-06-03T10:53:26.648Z,5.03
2018-06-03T10:55:54.941Z,4.30
2018-06-03T10:58:23.252Z,3.42
2018-06-03T11:00:51.511Z,3.40
2018-06-03T11:03:19.778Z,3.50
2018-06-03T11:05:48.011Z,2.92
2018-06-03T11:08:16.253Z,2.90
2018-06-03T11:10:44.525Z,3.40
2018-06-03T11:13:12.775Z,2.83
2018-06-03T11:15:41.026Z,3.20
2018-06-03T11:18:09.286Z,3.45
2018-06-03T11:20:37.544Z,3.80
2018-06-03T11:23:05.823Z,4.17
2018-06-03T11:25:34.077Z,3.40
2018-06-03T11:28:02.396Z,5.05
2018-06-03T11:30:30.661Z,3.70
2018-06-03T11:32:59.125Z,3.52
2018-06-03T11:35:27.703Z,4.20
2018-06-03T11:37:55.979Z,3.80
2018-06-03T11:40:24.197Z,3.50
2018-06-03T11:42:52.460Z,3.60
2018-06-03T11:45:20.716Z,3.33
2018-06-03T11:47:48.945Z,3.08
2018-06-03T11:50:17.341Z,3.30
2018-06-03T11:52:45.564Z,2.72
2018-06-03T11:55:13.864Z,2.77
2018-06-03T11:58:00.989Z,2.95
2018-06-03T12:00:29.290Z,3.70
2018-06-03T12:02:57.577Z,3.15
2018-06-03T12:05:25.842Z,3.02
2018-06-03T12:07:54.094Z,3.00
2018-06-03T12:10:22.395Z,3.58
2018-06-03T12:12:50.745Z,3.80
2018-06-03T12:15:19.075Z,3.83
2018-06-03T12:17:47.407Z,3.12
2018-06-03T12:20:15.825Z,3.40
2018-06-03T12:22:44.034Z,2.60
2018-06-03T12:25:12.326Z,3.62
2018-06-03T12:27:40.626Z,3.65
2018-06-03T12:30:08.873Z,3.65
2018-06-03T12:32:37.151Z,3.52
2018-06-03T12:35:05.425Z,3.08
2018-06-03T12:37:33.690Z,2.55
2018-06-03T12:40:01.964Z,2.30
2018-06-03T12:42:30.240Z,2.85
2018-06-03T12:44:58.541Z,2.37
2018-06-03T12:47:26.965Z,2.55
2018-06-03T12:49:55.373Z,2.40
2018-06-03T12:52:23.894Z,2.00
2018-06-03T12:54:52.131Z,2.10
2018-06-03T12:57:20.370Z,2.33
2018-06-03T12:59:48.616Z,2.70
2018-06-03T13:02:16.963Z,2.65
2018-06-03T13:04:45.345Z,2.65
2018-06-03T13:07:13.765Z,2.83
2018-06-03T13:09:42.021Z,2.55
2018-06-03T13:12:10.319Z,3.72
2018-06-03T13:14:38.554Z,2.58
2018-06-03T13:17:06.970Z,3.22
2018-06-03T13:19:35.536Z,2.70
2018-06-03T13:22:04.102Z,2.75
2018-06-03T13:24:32.438Z,2.50
2018-06-03T13:27:00.821Z,2.87
2018-06-03T13:29:29.101Z,2.47
2018-06-03T13:31:57.615Z,2.85
2018-06-03T13:34:25.938Z,2.50
2018-06-03T13:36:54.544Z,2.87
2018-06-03T13:39:22.777Z,3.00
2018-06-03T13:41:51.025Z,3.33
2018-06-03T13:44:19.249Z,2.85
2018-06-03T13:46:47.494Z,3.17
2018-06-03T13:49:16.058Z,2.75
2018-06-03T13:51:45.085Z,3.10
2018-06-03T13:54:13.588Z,3.17
2018-06-03T13:56:41.813Z,3.15
2018-06-03T13:59:10.133Z,2.42
2018-06-03T14:01:38.385Z,3.00
2018-06-03T14:04:06.819Z,2.40
2018-06-03T14:06:35.545Z,2.62
2018-06-03T14:09:04.201Z,3.08
2018-06-03T14:11:32.464Z,3.67
2018-06-03T14:14:00.822Z,3.20
2018-06-03T14:16:29.137Z,3.10
2018-06-03T14:18:57.730Z,3.00
2018-06-03T14:21:26.770Z,2.80
2018-06-03T14:23:55.685Z,2.62
2018-06-03T14:26:24.530Z,3.00
2018-06-03T14:28:52.877Z,2.83
2018-06-03T14:31:21.152Z,2.60
2018-06-03T14:33:49.426Z,2.85
2018-06-03T14:36:17.881Z,2.67
2018-06-03T14:38:46.393Z,2.90
2018-06-03T14:41:15.125Z,2.42
2018-06-03T14:43:43.380Z,3.27
2018-06-03T14:46:11.682Z,2.90
2018-06-03T14:48:39.926Z,3.60
2018-06-03T14:51:08.169Z,3.80
2018-06-03T14:53:36.424Z,3.55
2018-06-03T14:56:04.649Z,3.42
2018-06-03T14:58:32.892Z,3.55
2018-06-03T15:01:01.740Z,4.00
2018-06-03T15:03:29.997Z,4.50
2018-06-03T15:05:58.238Z,3.25
2018-06-03T15:08:26.534Z,4.10
2018-06-03T15:10:54.805Z,4.45
2018-06-03T15:13:23.108Z,4.15
2018-06-03T15:15:51.430Z,4.28
2018-06-03T15:18:19.703Z,5.47
2018-06-03T15:20:48.158Z,4.72
2018-06-03T15:23:25.153Z,4.85
2018-06-03T15:26:06.306Z,4.95
2018-06-03T15:30:23.238Z,4.87
2018-06-03T15:32:51.487Z,3.87
2018-06-03T15:35:19.749Z,4.40
2018-06-03T15:37:48.034Z,3.35
2018-06-03T15:40:16.321Z,4.22
2018-06-03T15:42:44.590Z,3.20
2018-06-03T15:45:12.909Z,3.12
2018-06-03T15:47:41.238Z,3.52
2018-06-03T15:50:09.454Z,3.55
2018-06-03T15:52:37.717Z,3.77
2018-06-03T15:55:06.041Z,3.45
2018-06-03T15:57:34.443Z,3.47
2018-06-03T16:00:02.675Z,3.75
2018-06-03T16:02:30.985Z,3.12
2018-06-03T16:04:59.325Z,3.17
2018-06-03T16:07:27.596Z,3.80
2018-06-03T16:09:55.830Z,3.25
2018-06-03T16:12:24.096Z,3.62
2018-06-03T16:14:53.352Z,3.40
2018-06-03T16:17:21.733Z,3.40
2018-06-03T16:19:50.442Z,3.40
2018-06-03T16:22:19.506Z,3.33
2018-06-03T16:24:48.020Z,3.72
2018-06-03T16:27:16.531Z,3.30
2018-06-03T16:29:45.723Z,3.72
2018-06-03T16:32:14.165Z,4.20
2018-06-03T16:34:42.419Z,4.28
2018-06-03T16:37:10.771Z,4.70
2018-06-03T16:39:39.312Z,4.00
2018-06-03T16:42:07.810Z,4.97
2018-06-03T16:44:36.192Z,4.92
2018-06-03T16:47:04.470Z,3.87
2018-06-03T16:49:32.764Z,4.60
2018-06-03T16:52:01.003Z,4.25
2018-06-03T16:54:29.283Z,4.28
2018-06-03T16:56:57.543Z,5.08
2018-06-03T16:59:25.789Z,5.03
2018-06-03T17:01:54.071Z,5.92
2018-06-03T17:04:22.298Z,5.60
2018-06-03T17:06:50.582Z,5.35
2018-06-03T17:09:18.868Z,5.22
2018-06-03T17:11:47.124Z,5.15
2018-06-03T17:14:15.343Z,5.12
2018-06-03T17:16:43.609Z,4.25
2018-06-03T17:19:11.897Z,4.72
2018-06-03T17:21:40.177Z,5.15
2018-06-03T17:24:08.436Z,4.60
2018-06-03T17:26:36.721Z,5.58
2018-06-03T17:29:05.036Z,5.08
2018-06-03T17:31:33.380Z,4.37
2018-06-03T17:34:01.708Z,4.90
2018-06-03T17:36:29.965Z,4.78
2018-06-03T17:38:58.197Z,4.78
2018-06-03T17:41:26.455Z,4.30
2018-06-03T17:43:54.665Z,5.20
2018-06-03T17:46:22.939Z,5.10
2018-06-03T17:48:51.157Z,4.60
2018-06-03T17:51:19.418Z,4.90
2018-06-03T17:53:47.644Z,5.12
2018-06-03T17:56:15.878Z,4.40
2018-06-03T17:58:44.157Z,4.30
2018-06-03T18:01:12.382Z,4.47
2018-06-03T18:03:40.752Z,4.72
2018-06-03T18:06:08.954Z,4.33
2018-06-03T18:08:37.835Z,4.40
2018-06-03T18:11:06.172Z,5.20
2018-06-03T18:13:34.426Z,4.53
2018-06-03T18:16:03.717Z,4.33
2018-06-03T18:18:31.949Z,4.67
2018-06-03T18:21:00.212Z,4.83
2018-06-03T18:23:28.433Z,5.10
2018-06-03T18:25:56.672Z,4.50
2018-06-03T18:28:24.992Z,4.50
2018-06-03T18:30:53.298Z,4.25
2018-06-03T18:33:21.569Z,4.33
2018-06-03T18:35:49.792Z,4.42
2018-06-03T18:38:18.047Z,4.58
2018-06-03T18:40:46.271Z,3.83
2018-06-03T18:43:14.507Z,3.85
2018-06-03T18:45:42.797Z,3.72
2018-06-03T18:48:11.016Z,4.00
2018-06-03T18:50:39.294Z,4.62
2018-06-03T18:53:07.531Z,4.78
2018-06-03T18:55:35.921Z,4.30
2018-06-03T18:58:04.269Z,4.25
2018-06-03T19:00:33.187Z,4.28
2018-06-03T19:03:01.464Z,3.40
2018-06-03T19:05:29.759Z,4.47
2018-06-03T19:07:58.045Z,4.12
2018-06-03T19:10:26.286Z,4.20
2018-06-03T19:12:54.675Z,3.75
2018-06-03T19:15:22.920Z,3.92
2018-06-03T19:17:51.232Z,4.10
2018-06-03T19:20:19.560Z,4.15
2018-06-03T19:22:47.821Z,3.33
2018-06-03T19:25:16.094Z,3.98
2018-06-03T19:27:44.378Z,4.35
2018-06-03T19:30:12.665Z,4.67
2018-06-03T19:33:10.172Z,3.87
2018-06-03T19:38:38.404Z,4.35
2018-06-03T19:44:45.070Z,4.70
2018-06-03T19:47:13.333Z,4.03
2018-06-03T19:49:41.628Z,3.77
2018-06-03T19:52:09.941Z,4.22
2018-06-03T19:54:38.356Z,3.67
2018-06-03T19:57:06.608Z,4.17
2018-06-03T19:59:36.167Z,4.05
2018-06-03T20:02:06.091Z,4.12
2018-06-03T20:09:58.488Z,3.87
2018-06-03T20:12:28.556Z,3.45
2018-06-03T20:14:56.865Z,3.80
2018-06-03T20:17:25.142Z,4.00
2018-06-03T20:19:54.124Z,3.98
2018-06-03T20:22:22.345Z,3.83
2018-06-03T20:24:50.573Z,3.85
2018-06-03T20:27:18.819Z,4.90
2018-06-03T20:29:47.514Z,4.10
2018-06-03T20:32:15.749Z,4.30
2018-06-03T20:34:44.676Z,4.35
2018-06-03T20:37:12.937Z,4.65
2018-06-03T20:39:41.161Z,3.70
2018-06-03T20:42:09.442Z,3.65
2018-06-03T20:44:37.734Z,4.05
2018-06-03T20:47:05.951Z,3.37
2018-06-03T20:49:34.192Z,3.45
2018-06-03T20:52:02.590Z,4.40
2018-06-03T20:54:30.861Z,4.58
2018-06-03T20:56:59.179Z,4.20
2018-06-03T20:59:27.448Z,5.03
2018-06-03T21:01:55.715Z,4.65
2018-06-03T21:04:23.931Z,3.80
2018-06-03T21:06:52.247Z,4.03
2018-06-03T21:09:20.601Z,3.67
2018-06-03T21:11:48.885Z,4.00
2018-06-03T21:14:16.038Z,3.42
2018-06-03T21:16:43.310Z,4.37
2018-06-03T21:19:10.532Z,4.72
2018-06-03T21:21:37.690Z,3.90
2018-06-03T21:24:05.030Z,3.92
2018-06-03T21:26:33.044Z,3.52
2018-06-03T21:29:00.194Z,4.67
2018-06-03T21:31:27.455Z,4.10
2018-06-03T21:33:54.584Z,3.85
2018-06-03T21:36:21.788Z,4.40
2018-06-03T21:38:48.858Z,3.80
2018-06-03T21:41:15.982Z,4.20
2018-06-03T21:43:43.077Z,3.55
2018-06-03T21:46:10.112Z,3.87
2018-06-03T21:48:37.207Z,3.83
2018-06-03T21:51:04.345Z,4.12
2018-06-03T21:53:31.392Z,3.85
2018-06-03T21:55:58.506Z,3.70
2018-06-03T21:58:25.531Z,3.90
2018-06-03T22:00:52.669Z,3.83
2018-06-03T22:03:19.732Z,3.85
2018-06-03T22:05:46.982Z,3.60
2018-06-03T22:08:14.030Z,3.72
2018-06-03T22:10:41.212Z,3.85
2018-06-03T22:13:08.298Z,3.90
2018-06-03T22:15:35.386Z,3.30
2018-06-03T22:18:02.765Z,3.58
2018-06-03T22:20:29.849Z,3.70
2018-06-03T22:22:56.894Z,3.15
2018-06-03T22:25:23.916Z,3.45
2018-06-03T22:27:50.998Z,3.17
2018-06-03T22:30:18.069Z,3.52
2018-06-03T22:32:45.208Z,3.20
2018-06-03T22:35:12.253Z,3.55
2018-06-03T22:37:39.326Z,3.10
2018-06-03T22:40:06.447Z,2.75
2018-06-03T22:42:33.507Z,3.67
2018-06-03T22:45:00.574Z,2.92
2018-06-03T22:47:27.618Z,3.55
2018-06-03T22:49:54.661Z,3.52
2018-06-03T22:52:21.702Z,2.98
2018-06-03T22:54:48.766Z,3.85
2018-06-03T22:58:19.050Z,3.22
2018-06-03T23:00:46.215Z,3.40
2018-06-03T23:03:14.829Z,3.00
2018-06-03T23:05:41.912Z,3.30
2018-06-03T23:08:09.010Z,3.25
2018-06-03T23:10:36.057Z,3.37
2018-06-03T23:13:03.179Z,2.62
2018-06-03T23:15:30.335Z,3.20
2018-06-03T23:17:57.577Z,3.35
2018-06-03T23:20:24.684Z,3.45
2018-06-03T23:22:51.735Z,3.98
2018-06-03T23:25:18.909Z,3.87
2018-06-03T23:27:45.981Z,3.45
2018-06-03T23:30:13.044Z,3.10
2018-06-03T23:32:40.238Z,3.25
2018-06-03T23:35:07.306Z,3.47
2018-06-03T23:37:34.391Z,3.47
2018-06-03T23:40:01.604Z,3.42
2018-06-03T23:42:28.781Z,3.62
2018-06-03T23:44:55.881Z,3.83
2018-06-03T23:47:22.949Z,3.12
2018-06-03T23:49:50.139Z,3.30
2018-06-03T23:52:17.207Z,2.90
2018-06-03T23:54:44.284Z,2.98
2018-06-03T23:57:11.498Z,2.70
2018-06-03T23:59:38.769Z,3.70
